Margaret Moran — WQZ6557 — position and weather

sailwx.info

Track history (hours):
 
Tides and Currents Weather Stations Pressure Air Temp Water Temp Dewpoint Dewpoint Depression Visibility Wind Speed Wind Dir Waves Ship Positions

Margaret Moran

Owner: MORAN TOWING CORPORATION, New Canaan, CT. More information available from US FCC via Universal Licensing System and Coast Guard Vessel Documentation Center.

Last reported at 2018-Jan-22 04:28 UTC. Time now 2018-Jan-22 04:33 UTC.
Position N 40°36' W 074°12'.

Length 31 m; draft 4.6 m.

Type: Tug. MMSI: 366939820.

Date/timePositionNaut miles runAvg speedWind from/ knotsBaromVisibWave heightAir tempDewpointWater temp
2018-Jan-22 04:28N 40°36' W 074°12'2 5.0
2018-Jan-22 04:00N 40°38' W 074°12'3 5.1
2018-Jan-22 03:30N 40°39' W 074°08'1 2.4
2018-Jan-22 03:01N 40°39' W 074°07'1 0.8
2018-Jan-22 02:08N 40°38' W 074°08'0 0.0
2018-Jan-22 01:38N 40°38' W 074°08'0 0.0
2018-Jan-22 01:26N 40°38' W 074°08'0 0.0
2018-Jan-22 00:56N 40°38' W 074°08'0 0.0
2018-Jan-22 00:26N 40°38' W 074°08'0 0.0
2018-Jan-21 23:56N 40°38' W 074°08'0 0.0
2018-Jan-21 23:26N 40°38' W 074°08'0 0.0
2018-Jan-21 22:59N 40°38' W 074°08'0 0.0
2018-Jan-21 22:29N 40°38' W 074°08'0 0.0
2018-Jan-21 21:59N 40°38' W 074°08'0 0.0
2018-Jan-21 21:26N 40°38' W 074°08'0 0.0
2018-Jan-21 20:50N 40°38' W 074°08'0 0.0
2018-Jan-21 20:20N 40°38' W 074°08'0 0.0
2018-Jan-21 19:56N 40°38' W 074°08'0 0.0
2018-Jan-21 19:26N 40°38' W 074°08'0 0.0
2018-Jan-21 18:23N 40°38' W 074°08'0 0.0
2018-Jan-21 17:29N 40°38' W 074°08'0 0.0
2018-Jan-21 16:57N 40°38' W 074°08'3 5.9
2018-Jan-21 16:30N 40°41' W 074°09'2 2.9
2018-Jan-21 15:59N 40°39' W 074°09'2 4.3
2018-Jan-21 15:30N 40°39' W 074°06'3 5.8
2018-Jan-21 15:00N 40°37' W 074°03'1 1.5
2018-Jan-21 14:24N 40°38' W 074°03'0 0.2
2018-Jan-21 14:00N 40°38' W 074°03'0 0.1
2018-Jan-21 13:30N 40°38' W 074°03'0 0.1
2018-Jan-21 13:00N 40°38' W 074°03'0 0.2
2018-Jan-21 12:30N 40°38' W 074°03'0 0.5
2018-Jan-21 12:00N 40°37' W 074°03'0 0.6
2018-Jan-21 11:30N 40°37' W 074°04'0 0.0
2018-Jan-21 11:00N 40°37' W 074°04'1 2.5
2018-Jan-21 10:30N 40°39' W 074°04'3 5.8
2018-Jan-21 10:00N 40°38' W 074°08'0 0.0
2018-Jan-21 09:30N 40°38' W 074°08'0 0.0
2018-Jan-21 09:00N 40°38' W 074°08'0 0.0
2018-Jan-21 08:30N 40°38' W 074°08'0 0.0
2018-Jan-21 08:00N 40°38' W 074°08'0 0.0
2018-Jan-21 07:27N 40°38' W 074°08'0 0.0
2018-Jan-21 06:57N 40°38' W 074°08'3 5.9
2018-Jan-21 06:30N 40°39' W 074°11'5 9.8
2018-Jan-21 05:57N 40°33' W 074°13'1 0.5
2018-Jan-21 04:26N 40°34' W 074°13'2 5.5
2018-Jan-21 04:00N 40°36' W 074°12'3 5.2
2018-Jan-21 03:29N 40°39' W 074°10'3 6.5
2018-Jan-21 02:59N 40°39' W 074°06'1 1.6
2018-Jan-21 02:30N 40°39' W 074°05'0 0.2
2018-Jan-21 02:00N 40°39' W 074°05'3 5.7
2018-Jan-21 01:30N 40°39' W 074°09'2 4.9
2018-Jan-21 01:00N 40°41' W 074°08'1 1.5
2018-Jan-21 00:30N 40°42' W 074°09'3 5.1
2018-Jan-21 00:00N 40°39' W 074°09'1 1.6
2018-Jan-20 23:18N 40°38' W 074°08'0 0.0
2018-Jan-20 22:54N 40°38' W 074°08'0 0.0
2018-Jan-20 22:27N 40°38' W 074°08'0 0.0
2018-Jan-20 22:00N 40°38' W 074°08'0 0.0
2018-Jan-20 21:30N 40°38' W 074°08'1 2.2
2018-Jan-20 21:00N 40°39' W 074°09'2 3.9
2018-Jan-20 20:30N 40°41' W 074°09'1 1.6
2018-Jan-20 20:00N 40°40' W 074°08'2 3.5
2018-Jan-20 19:30N 40°39' W 074°09'2 4.9
2018-Jan-20 19:00N 40°39' W 074°06'3 6.1
2018-Jan-20 18:31N 40°37' W 074°03'1 2.9
2018-Jan-20 18:01N 40°38' W 074°04'0 0.1
2018-Jan-20 17:31N 40°38' W 074°04'0 0.1
2018-Jan-20 17:00N 40°38' W 074°04'0 0.4
2018-Jan-20 16:30N 40°38' W 074°04'3 6.4
2018-Jan-20 16:00N 40°38' W 074°08'4 7.8
2018-Jan-20 15:30N 40°36' W 074°12'5 8.3
2018-Jan-20 14:55N 40°32' W 074°15'0 0.0
2018-Jan-20 14:30N 40°32' W 074°15'1 0.6
2018-Jan-20 13:04N 40°33' W 074°15'1 9.6
2018-Jan-20 12:58N 40°33' W 074°14'4 8.7
2018-Jan-20 12:29N 40°37' W 074°12'4 7.4
2018-Jan-20 12:01N 40°38' W 074°08'2 4.2
2018-Jan-20 11:30N 40°41' W 074°08'1 1.7
2018-Jan-20 10:59N 40°41' W 074°08'0 0.1
2018-Jan-20 10:30N 40°42' W 074°08'0 0.0
2018-Jan-20 10:00N 40°42' W 074°08'0 0.0
2018-Jan-20 09:30N 40°42' W 074°08'0 0.0
2018-Jan-20 09:00N 40°42' W 074°08'3 5.5
2018-Jan-20 08:29N 40°39' W 074°09'2 3.6
2018-Jan-20 08:00N 40°40' W 074°08'1 1.6
2018-Jan-20 07:30N 40°41' W 074°09'0 0.3
2018-Jan-20 07:00N 40°41' W 074°09'0 0.1
2018-Jan-20 06:29N 40°41' W 074°09'0 0.0
2018-Jan-20 05:59N 40°41' W 074°09'0 0.0
2018-Jan-20 05:29N 40°41' W 074°09'0 0.0
2018-Jan-20 05:00N 40°41' W 074°09'3 6.3
2018-Jan-20 04:29N 40°38' W 074°12'5 9.5
2018-Jan-20 03:56N 40°33' W 074°14'1 0.6
2018-Jan-20 02:02N 40°33' W 074°15'1 9.7
2018-Jan-20 01:56N 40°33' W 074°14'4 8.9
2018-Jan-20 01:30N 40°37' W 074°12'4 7.4
2018-Jan-20 01:00N 40°38' W 074°08'0 0.0
2018-Jan-20 00:30N 40°38' W 074°08'0 0.0
2018-Jan-19 23:57N 40°38' W 074°08'0 0.0
2018-Jan-19 23:30N 40°38' W 074°08'0 0.0
2018-Jan-19 23:00N 40°38' W 074°08'0 0.0
2018-Jan-19 22:30N 40°38' W 074°08'0 0.0
2018-Jan-19 22:00N 40°38' W 074°08'0 0.0
2018-Jan-19 21:30N 40°38' W 074°08'0 0.0
2018-Jan-19 21:00N 40°38' W 074°08'3 6.2
2018-Jan-19 20:30N 40°39' W 074°04'1 2.1
2018-Jan-19 19:57N 40°39' W 074°05'2 4.2
2018-Jan-19 19:26N 40°38' W 074°08'0 0.0
2018-Jan-19 18:51N 40°38' W 074°08'0 0.0
2018-Jan-19 18:26N 40°38' W 074°08'0 0.0
2018-Jan-19 17:56N 40°38' W 074°08'0 0.0
2018-Jan-19 17:26N 40°38' W 074°08'0 0.0
2018-Jan-19 17:00N 40°38' W 074°08'3 6.2
2018-Jan-19 16:28N 40°42' W 074°08'0 0.1
2018-Jan-19 16:00N 40°42' W 074°08'2 3.2
2018-Jan-19 15:30N 40°40' W 074°08'2 3.5
2018-Jan-19 15:00N 40°39' W 074°07'3 6.0
2018-Jan-19 14:30N 40°38' W 074°03'4 8.3
2018-Jan-19 14:00N 40°39' W 074°08'3 5.9
2018-Jan-19 13:30N 40°41' W 074°08'0 0.7
2018-Jan-19 13:00N 40°42' W 074°09'0 0.7
2018-Jan-19 12:30N 40°41' W 074°08'2 3.8
2018-Jan-19 12:00N 40°40' W 074°09'0 0.4
2018-Jan-19 11:30N 40°40' W 074°09'1 2.9
2018-Jan-19 11:00N 40°39' W 074°07'0 1.0
2018-Jan-19 10:30N 40°38' W 074°08'0 0.0
2018-Jan-19 09:59N 40°38' W 074°08'0 0.0
2018-Jan-19 09:30N 40°38' W 074°08'0 0.0
2018-Jan-19 09:00N 40°38' W 074°08'0 0.0
2018-Jan-19 08:29N 40°38' W 074°08'0 0.0
2018-Jan-19 08:00N 40°38' W 074°08'3 5.6
2018-Jan-19 07:31N 40°39' W 074°04'1 2.1
2018-Jan-19 07:00N 40°40' W 074°05'0 0.0
2018-Jan-19 06:30N 40°40' W 074°05'0 0.2
2018-Jan-19 05:58N 40°40' W 074°05'0 0.0
2018-Jan-19 05:28N 40°40' W 074°05'1 1.5
2018-Jan-19 05:00N 40°40' W 074°04'3 5.9
2018-Jan-19 04:30N 40°41' W 074°01'1 1.8
2018-Jan-19 04:01N 40°41' W 074°02'2 3.8
2018-Jan-19 03:30N 40°39' W 074°03'4 7.1
2018-Jan-19 03:00N 40°39' W 074°08'3 5.7
2018-Jan-19 02:29N 40°41' W 074°08'0 0.9
2018-Jan-19 02:00N 40°41' W 074°08'3 5.2
2018-Jan-19 01:30N 40°38' W 074°09'1 1.3
2018-Jan-19 00:56N 40°38' W 074°08'0 0.0
2018-Jan-19 00:20N 40°38' W 074°08'0 0.0
2018-Jan-18 23:56N 40°38' W 074°08'0 0.0
2018-Jan-18 23:26N 40°38' W 074°08'0 0.0
2018-Jan-18 22:59N 40°38' W 074°08'0 0.0
2018-Jan-18 22:26N 40°38' W 074°08'0 0.0
2018-Jan-18 21:59N 40°38' W 074°08'0 0.0
2018-Jan-18 21:20N 40°38' W 074°08'0 0.0
2018-Jan-18 20:56N 40°38' W 074°08'0 0.0
2018-Jan-18 20:22N 40°38' W 074°08'0 0.0
2018-Jan-18 17:47N 40°38' W 074°08'0 0.0
2018-Jan-18 17:26N 40°38' W 074°08'0 0.0
2018-Jan-18 16:59N 40°38' W 074°08'0 0.0
2018-Jan-18 16:25N 40°38' W 074°08'0 0.0
2018-Jan-18 15:56N 40°38' W 074°08'0 0.0
2018-Jan-18 14:05N 40°38' W 074°08'1 5.8
2018-Jan-18 14:00N 40°39' W 074°07'1 2.7
2018-Jan-18 13:30N 40°39' W 074°05'1 1.0
2018-Jan-18 13:00N 40°39' W 074°06'1 1.6
2018-Jan-18 12:09N 40°38' W 074°08'1 6.8
2018-Jan-18 12:00N 40°39' W 074°09'2 3.2
2018-Jan-18 11:30N 40°41' W 074°09'1 1.1
2018-Jan-18 11:00N 40°40' W 074°08'2 3.7
2018-Jan-18 10:28N 40°39' W 074°09'3 6.6
2018-Jan-18 10:00N 40°39' W 074°05'3 6.1
2018-Jan-18 09:31N 40°37' W 074°03'3 5.8
2018-Jan-18 08:58N 40°39' W 074°06'3 5.3
2018-Jan-18 08:30N 40°39' W 074°09'2 3.1
2018-Jan-18 07:59N 40°40' W 074°08'1 1.2
2018-Jan-18 07:30N 40°41' W 074°09'0 0.5
2018-Jan-18 07:01N 40°41' W 074°09'0 0.5
2018-Jan-18 06:31N 40°41' W 074°09'2 3.8
2018-Jan-18 05:56N 40°38' W 074°08'2 4.1
2018-Jan-18 05:30N 40°40' W 074°08'1 2.1
2018-Jan-18 04:59N 40°41' W 074°09'0 0.2
2018-Jan-18 04:30N 40°41' W 074°09'0 0.1
2018-Jan-18 04:00N 40°41' W 074°09'3 1.3
2018-Jan-18 01:44N 40°38' W 074°08'1 4.6
2018-Jan-18 01:30N 40°39' W 074°09'1 2.4
2018-Jan-18 01:00N 40°40' W 074°09'0 0.0
2018-Jan-17 23:59N 40°40' W 074°09'0 0.0
2018-Jan-17 23:57N 40°40' W 074°09'  
2018-Jan-12 14:57N 40°39' W 074°09'2 3.8
2018-Jan-12 14:31N 40°39' W 074°07'3 5.1
2018-Jan-12 14:00N 40°38' W 074°03'1 1.7
2018-Jan-12 13:30N 40°38' W 074°03'3 6.1
2018-Jan-12 13:00N 40°39' W 074°07'1 1.3
2018-Jan-12 12:22N 40°38' W 074°08'0 0.0
2018-Jan-12 11:52N 40°38' W 074°08'0 0.0
2018-Jan-12 11:28N 40°38' W 074°08'0 0.0
2018-Jan-12 10:52N 40°38' W 074°08'0 0.0
2018-Jan-12 10:28N 40°38' W 074°08'0 0.0
2018-Jan-12 09:58N 40°38' W 074°08'0 0.0
2018-Jan-12 09:28N 40°38' W 074°08'0 0.0
2018-Jan-12 08:58N 40°38' W 074°08'0 0.0
2018-Jan-12 08:28N 40°38' W 074°08'0 0.0
2018-Jan-12 07:58N 40°38' W 074°08'0 0.0
2018-Jan-12 07:28N 40°38' W 074°08'0 0.0
2018-Jan-12 06:58N 40°38' W 074°08'0 0.0
2018-Jan-12 06:28N 40°38' W 074°08'0 0.0
2018-Jan-12 05:58N 40°38' W 074°08'0 0.0
2018-Jan-12 05:28N 40°38' W 074°08'0 0.0
2018-Jan-12 04:58N 40°38' W 074°08'  
Track history (hours):
 
Tides and Currents Weather Stations Pressure Air Temp Water Temp Dewpoint Dewpoint Depression Visibility Wind Speed Wind Dir Waves Ship Positions

Margaret Moran

Owner: MORAN TOWING CORPORATION, New Canaan, CT. More information available from US FCC via Universal Licensing System and Coast Guard Vessel Documentation Center.

Last reported at 2018-Jan-22 04:28 UTC. Time now 2018-Jan-22 04:33 UTC.
Position N 40°36' W 074°12'.

Length 31 m; draft 4.6 m.

Type: Tug. MMSI: 366939820.

Date/timePositionNaut miles runAvg speedWind from/ knotsBaromVisibWave heightAir tempDewpointWater temp
2018-Jan-22 04:28N 40°36' W 074°12'2 5.0
2018-Jan-22 04:00N 40°38' W 074°12'3 5.1
2018-Jan-22 03:30N 40°39' W 074°08'1 2.4
2018-Jan-22 03:01N 40°39' W 074°07'1 0.8
2018-Jan-22 02:08N 40°38' W 074°08'0 0.0
2018-Jan-22 01:38N 40°38' W 074°08'0 0.0
2018-Jan-22 01:26N 40°38' W 074°08'0 0.0
2018-Jan-22 00:56N 40°38' W 074°08'0 0.0
2018-Jan-22 00:26N 40°38' W 074°08'0 0.0
2018-Jan-21 23:56N 40°38' W 074°08'0 0.0
2018-Jan-21 23:26N 40°38' W 074°08'0 0.0
2018-Jan-21 22:59N 40°38' W 074°08'0 0.0
2018-Jan-21 22:29N 40°38' W 074°08'0 0.0
2018-Jan-21 21:59N 40°38' W 074°08'0 0.0
2018-Jan-21 21:26N 40°38' W 074°08'0 0.0
2018-Jan-21 20:50N 40°38' W 074°08'0 0.0
2018-Jan-21 20:20N 40°38' W 074°08'0 0.0
2018-Jan-21 19:56N 40°38' W 074°08'0 0.0
2018-Jan-21 19:26N 40°38' W 074°08'0 0.0
2018-Jan-21 18:23N 40°38' W 074°08'0 0.0
2018-Jan-21 17:29N 40°38' W 074°08'0 0.0
2018-Jan-21 16:57N 40°38' W 074°08'3 5.9
2018-Jan-21 16:30N 40°41' W 074°09'2 2.9
2018-Jan-21 15:59N 40°39' W 074°09'2 4.3
2018-Jan-21 15:30N 40°39' W 074°06'3 5.8
2018-Jan-21 15:00N 40°37' W 074°03'1 1.5
2018-Jan-21 14:24N 40°38' W 074°03'0 0.2
2018-Jan-21 14:00N 40°38' W 074°03'0 0.1
2018-Jan-21 13:30N 40°38' W 074°03'0 0.1
2018-Jan-21 13:00N 40°38' W 074°03'0 0.2
2018-Jan-21 12:30N 40°38' W 074°03'0 0.5
2018-Jan-21 12:00N 40°37' W 074°03'0 0.6
2018-Jan-21 11:30N 40°37' W 074°04'0 0.0
2018-Jan-21 11:00N 40°37' W 074°04'1 2.5
2018-Jan-21 10:30N 40°39' W 074°04'3 5.8
2018-Jan-21 10:00N 40°38' W 074°08'0 0.0
2018-Jan-21 09:30N 40°38' W 074°08'0 0.0
2018-Jan-21 09:00N 40°38' W 074°08'0 0.0
2018-Jan-21 08:30N 40°38' W 074°08'0 0.0
2018-Jan-21 08:00N 40°38' W 074°08'0 0.0
2018-Jan-21 07:27N 40°38' W 074°08'0 0.0
2018-Jan-21 06:57N 40°38' W 074°08'3 5.9
2018-Jan-21 06:30N 40°39' W 074°11'5 9.8
2018-Jan-21 05:57N 40°33' W 074°13'1 0.5
2018-Jan-21 04:26N 40°34' W 074°13'2 5.5
2018-Jan-21 04:00N 40°36' W 074°12'3 5.2
2018-Jan-21 03:29N 40°39' W 074°10'3 6.5
2018-Jan-21 02:59N 40°39' W 074°06'1 1.6
2018-Jan-21 02:30N 40°39' W 074°05'0 0.2
2018-Jan-21 02:00N 40°39' W 074°05'3 5.7
2018-Jan-21 01:30N 40°39' W 074°09'2 4.9
2018-Jan-21 01:00N 40°41' W 074°08'1 1.5
2018-Jan-21 00:30N 40°42' W 074°09'3 5.1
2018-Jan-21 00:00N 40°39' W 074°09'1 1.6
2018-Jan-20 23:18N 40°38' W 074°08'0 0.0
2018-Jan-20 22:54N 40°38' W 074°08'0 0.0
2018-Jan-20 22:27N 40°38' W 074°08'0 0.0
2018-Jan-20 22:00N 40°38' W 074°08'0 0.0
2018-Jan-20 21:30N 40°38' W 074°08'1 2.2
2018-Jan-20 21:00N 40°39' W 074°09'2 3.9
2018-Jan-20 20:30N 40°41' W 074°09'1 1.6
2018-Jan-20 20:00N 40°40' W 074°08'2 3.5
2018-Jan-20 19:30N 40°39' W 074°09'2 4.9
2018-Jan-20 19:00N 40°39' W 074°06'3 6.1
2018-Jan-20 18:31N 40°37' W 074°03'1 2.9
2018-Jan-20 18:01N 40°38' W 074°04'0 0.1
2018-Jan-20 17:31N 40°38' W 074°04'0 0.1
2018-Jan-20 17:00N 40°38' W 074°04'0 0.4
2018-Jan-20 16:30N 40°38' W 074°04'3 6.4
2018-Jan-20 16:00N 40°38' W 074°08'4 7.8
2018-Jan-20 15:30N 40°36' W 074°12'5 8.3
2018-Jan-20 14:55N 40°32' W 074°15'0 0.0
2018-Jan-20 14:30N 40°32' W 074°15'1 0.6
2018-Jan-20 13:04N 40°33' W 074°15'1 9.6
2018-Jan-20 12:58N 40°33' W 074°14'4 8.7
2018-Jan-20 12:29N 40°37' W 074°12'4 7.4
2018-Jan-20 12:01N 40°38' W 074°08'2 4.2
2018-Jan-20 11:30N 40°41' W 074°08'1 1.7
2018-Jan-20 10:59N 40°41' W 074°08'0 0.1
2018-Jan-20 10:30N 40°42' W 074°08'0 0.0
2018-Jan-20 10:00N 40°42' W 074°08'0 0.0
2018-Jan-20 09:30N 40°42' W 074°08'0 0.0
2018-Jan-20 09:00N 40°42' W 074°08'3 5.5
2018-Jan-20 08:29N 40°39' W 074°09'2 3.6
2018-Jan-20 08:00N 40°40' W 074°08'1 1.6
2018-Jan-20 07:30N 40°41' W 074°09'0 0.3
2018-Jan-20 07:00N 40°41' W 074°09'0 0.1
2018-Jan-20 06:29N 40°41' W 074°09'0 0.0
2018-Jan-20 05:59N 40°41' W 074°09'0 0.0
2018-Jan-20 05:29N 40°41' W 074°09'0 0.0
2018-Jan-20 05:00N 40°41' W 074°09'3 6.3
2018-Jan-20 04:29N 40°38' W 074°12'5 9.5
2018-Jan-20 03:56N 40°33' W 074°14'1 0.6
2018-Jan-20 02:02N 40°33' W 074°15'1 9.7
2018-Jan-20 01:56N 40°33' W 074°14'4 8.9
2018-Jan-20 01:30N 40°37' W 074°12'4 7.4
2018-Jan-20 01:00N 40°38' W 074°08'0 0.0
2018-Jan-20 00:30N 40°38' W 074°08'0 0.0
2018-Jan-19 23:57N 40°38' W 074°08'0 0.0
2018-Jan-19 23:30N 40°38' W 074°08'0 0.0
2018-Jan-19 23:00N 40°38' W 074°08'0 0.0
2018-Jan-19 22:30N 40°38' W 074°08'0 0.0
2018-Jan-19 22:00N 40°38' W 074°08'0 0.0
2018-Jan-19 21:30N 40°38' W 074°08'0 0.0
2018-Jan-19 21:00N 40°38' W 074°08'3 6.2
2018-Jan-19 20:30N 40°39' W 074°04'1 2.1
2018-Jan-19 19:57N 40°39' W 074°05'2 4.2
2018-Jan-19 19:26N 40°38' W 074°08'0 0.0
2018-Jan-19 18:51N 40°38' W 074°08'0 0.0
2018-Jan-19 18:26N 40°38' W 074°08'0 0.0
2018-Jan-19 17:56N 40°38' W 074°08'0 0.0
2018-Jan-19 17:26N 40°38' W 074°08'0 0.0
2018-Jan-19 17:00N 40°38' W 074°08'3 6.2
2018-Jan-19 16:28N 40°42' W 074°08'0 0.1
2018-Jan-19 16:00N 40°42' W 074°08'2 3.2
2018-Jan-19 15:30N 40°40' W 074°08'2 3.5
2018-Jan-19 15:00N 40°39' W 074°07'3 6.0
2018-Jan-19 14:30N 40°38' W 074°03'4 8.3
2018-Jan-19 14:00N 40°39' W 074°08'3 5.9
2018-Jan-19 13:30N 40°41' W 074°08'0 0.7
2018-Jan-19 13:00N 40°42' W 074°09'0 0.7
2018-Jan-19 12:30N 40°41' W 074°08'2 3.8
2018-Jan-19 12:00N 40°40' W 074°09'0 0.4
2018-Jan-19 11:30N 40°40' W 074°09'1 2.9
2018-Jan-19 11:00N 40°39' W 074°07'0 1.0
2018-Jan-19 10:30N 40°38' W 074°08'0 0.0
2018-Jan-19 09:59N 40°38' W 074°08'0 0.0
2018-Jan-19 09:30N 40°38' W 074°08'0 0.0
2018-Jan-19 09:00N 40°38' W 074°08'0 0.0
2018-Jan-19 08:29N 40°38' W 074°08'0 0.0
2018-Jan-19 08:00N 40°38' W 074°08'3 5.6
2018-Jan-19 07:31N 40°39' W 074°04'1 2.1
2018-Jan-19 07:00N 40°40' W 074°05'0 0.0
2018-Jan-19 06:30N 40°40' W 074°05'0 0.2
2018-Jan-19 05:58N 40°40' W 074°05'0 0.0
2018-Jan-19 05:28N 40°40' W 074°05'1 1.5
2018-Jan-19 05:00N 40°40' W 074°04'3 5.9
2018-Jan-19 04:30N 40°41' W 074°01'1 1.8
2018-Jan-19 04:01N 40°41' W 074°02'2 3.8
2018-Jan-19 03:30N 40°39' W 074°03'4 7.1
2018-Jan-19 03:00N 40°39' W 074°08'3 5.7
2018-Jan-19 02:29N 40°41' W 074°08'0 0.9
2018-Jan-19 02:00N 40°41' W 074°08'3 5.2
2018-Jan-19 01:30N 40°38' W 074°09'1 1.3
2018-Jan-19 00:56N 40°38' W 074°08'0 0.0
2018-Jan-19 00:20N 40°38' W 074°08'0 0.0
2018-Jan-18 23:56N 40°38' W 074°08'0 0.0
2018-Jan-18 23:26N 40°38' W 074°08'0 0.0
2018-Jan-18 22:59N 40°38' W 074°08'0 0.0
2018-Jan-18 22:26N 40°38' W 074°08'0 0.0
2018-Jan-18 21:59N 40°38' W 074°08'0 0.0
2018-Jan-18 21:20N 40°38' W 074°08'0 0.0
2018-Jan-18 20:56N 40°38' W 074°08'0 0.0
2018-Jan-18 20:22N 40°38' W 074°08'0 0.0
2018-Jan-18 17:47N 40°38' W 074°08'0 0.0
2018-Jan-18 17:26N 40°38' W 074°08'0 0.0
2018-Jan-18 16:59N 40°38' W 074°08'0 0.0
2018-Jan-18 16:25N 40°38' W 074°08'0 0.0
2018-Jan-18 15:56N 40°38' W 074°08'0 0.0
2018-Jan-18 14:05N 40°38' W 074°08'1 5.8
2018-Jan-18 14:00N 40°39' W 074°07'1 2.7
2018-Jan-18 13:30N 40°39' W 074°05'1 1.0
2018-Jan-18 13:00N 40°39' W 074°06'1 1.6
2018-Jan-18 12:09N 40°38' W 074°08'1 6.8
2018-Jan-18 12:00N 40°39' W 074°09'2 3.2
2018-Jan-18 11:30N 40°41' W 074°09'1 1.1
2018-Jan-18 11:00N 40°40' W 074°08'2 3.7
2018-Jan-18 10:28N 40°39' W 074°09'3 6.6
2018-Jan-18 10:00N 40°39' W 074°05'3 6.1
2018-Jan-18 09:31N 40°37' W 074°03'3 5.8
2018-Jan-18 08:58N 40°39' W 074°06'3 5.3
2018-Jan-18 08:30N 40°39' W 074°09'2 3.1
2018-Jan-18 07:59N 40°40' W 074°08'1 1.2
2018-Jan-18 07:30N 40°41' W 074°09'0 0.5
2018-Jan-18 07:01N 40°41' W 074°09'0 0.5
2018-Jan-18 06:31N 40°41' W 074°09'2 3.8
2018-Jan-18 05:56N 40°38' W 074°08'2 4.1
2018-Jan-18 05:30N 40°40' W 074°08'1 2.1
2018-Jan-18 04:59N 40°41' W 074°09'0 0.2
2018-Jan-18 04:30N 40°41' W 074°09'0 0.1
2018-Jan-18 04:00N 40°41' W 074°09'3 1.3
2018-Jan-18 01:44N 40°38' W 074°08'1 4.6
2018-Jan-18 01:30N 40°39' W 074°09'1 2.4
2018-Jan-18 01:00N 40°40' W 074°09'0 0.0
2018-Jan-17 23:59N 40°40' W 074°09'0 0.0
2018-Jan-17 23:57N 40°40' W 074°09'  
2018-Jan-12 14:57N 40°39' W 074°09'2 3.8
2018-Jan-12 14:31N 40°39' W 074°07'3 5.1
2018-Jan-12 14:00N 40°38' W 074°03'1 1.7
2018-Jan-12 13:30N 40°38' W 074°03'3 6.1
2018-Jan-12 13:00N 40°39' W 074°07'1 1.3
2018-Jan-12 12:22N 40°38' W 074°08'0 0.0
2018-Jan-12 11:52N 40°38' W 074°08'0 0.0
2018-Jan-12 11:28N 40°38' W 074°08'0 0.0
2018-Jan-12 10:52N 40°38' W 074°08'0 0.0
2018-Jan-12 10:28N 40°38' W 074°08'0 0.0
2018-Jan-12 09:58N 40°38' W 074°08'0 0.0
2018-Jan-12 09:28N 40°38' W 074°08'0 0.0
2018-Jan-12 08:58N 40°38' W 074°08'0 0.0
2018-Jan-12 08:28N 40°38' W 074°08'0 0.0
2018-Jan-12 07:58N 40°38' W 074°08'0 0.0
2018-Jan-12 07:28N 40°38' W 074°08'0 0.0
2018-Jan-12 06:58N 40°38' W 074°08'0 0.0
2018-Jan-12 06:28N 40°38' W 074°08'0 0.0
2018-Jan-12 05:58N 40°38' W 074°08'0 0.0
2018-Jan-12 05:28N 40°38' W 074°08'0 0.0
2018-Jan-12 04:58N 40°38' W 074°08'  

Dump ship's entire track history